sensor_id;sensor_type;location;lat;lon;timestamp;P1;durP1;ratioP1;P2;durP2;ratioP2
18520;SDS011;9390;51.244;6.982;2022-09-17T00:01:36;14.90;;;2.28;;
18520;SDS011;9390;51.244;6.982;2022-09-17T00:04:08;12.63;;;2.30;;
18520;SDS011;9390;51.244;6.982;2022-09-17T00:06:40;9.10;;;2.00;;
18520;SDS011;9390;51.244;6.982;2022-09-17T00:09:11;14.93;;;2.40;;
18520;SDS011;9390;51.244;6.982;2022-09-17T00:11:45;15.75;;;3.15;;
18520;SDS011;9390;51.244;6.982;2022-09-17T00:14:17;15.98;;;3.45;;
18520;SDS011;9390;51.244;6.982;2022-09-17T00:16:48;16.85;;;2.72;;
18520;SDS011;9390;51.244;6.982;2022-09-17T00:19:21;13.68;;;2.38;;
18520;SDS011;9390;51.244;6.982;2022-09-17T00:21:54;14.70;;;2.35;;
18520;SDS011;9390;51.244;6.982;2022-09-17T00:24:25;12.55;;;2.30;;
18520;SDS011;9390;51.244;6.982;2022-09-17T00:26:58;9.82;;;2.42;;
18520;SDS011;9390;51.244;6.982;2022-09-17T00:29:30;16.88;;;2.50;;
18520;SDS011;9390;51.244;6.982;2022-09-17T00:32:01;11.73;;;2.40;;
18520;SDS011;9390;51.244;6.982;2022-09-17T00:34:33;17.40;;;2.28;;
18520;SDS011;9390;51.244;6.982;2022-09-17T00:37:04;11.93;;;2.33;;
18520;SDS011;9390;51.244;6.982;2022-09-17T00:39:36;12.90;;;2.25;;
18520;SDS011;9390;51.244;6.982;2022-09-17T00:42:09;12.02;;;2.35;;
18520;SDS011;9390;51.244;6.982;2022-09-17T00:44:43;8.68;;;2.25;;
18520;SDS011;9390;51.244;6.982;2022-09-17T00:47:24;12.57;;;2.53;;
18520;SDS011;9390;51.244;6.982;2022-09-17T00:49:59;13.77;;;3.55;;
18520;SDS011;9390;51.244;6.982;2022-09-17T00:52:35;11.85;;;2.65;;
18520;SDS011;9390;51.244;6.982;2022-09-17T00:55:09;14.43;;;2.80;;
18520;SDS011;9390;51.244;6.982;2022-09-17T00:57:45;14.30;;;2.92;;
18520;SDS011;9390;51.244;6.982;2022-09-17T01:00:17;11.73;;;3.10;;
18520;SDS011;9390;51.244;6.982;2022-09-17T01:02:49;12.25;;;3.10;;
18520;SDS011;9390;51.244;6.982;2022-09-17T01:08:00;13.90;;;3.92;;
18520;SDS011;9390;51.244;6.982;2022-09-17T01:10:40;17.27;;;3.17;;
18520;SDS011;9390;51.244;6.982;2022-09-17T01:13:25;17.85;;;3.65;;
18520;SDS011;9390;51.244;6.982;2022-09-17T01:16:03;15.57;;;4.30;;
18520;SDS011;9390;51.244;6.982;2022-09-17T01:18:40;14.68;;;4.05;;
18520;SDS011;9390;51.244;6.982;2022-09-17T01:21:26;14.05;;;4.57;;
18520;SDS011;9390;51.244;6.982;2022-09-17T01:24:31;19.40;;;5.25;;
18520;SDS011;9390;51.244;6.982;2022-09-17T01:30:53;17.83;;;6.28;;
18520;SDS011;9390;51.244;6.982;2022-09-17T01:36:12;18.98;;;7.05;;
18520;SDS011;9390;51.244;6.982;2022-09-17T01:38:51;18.15;;;7.40;;
18520;SDS011;9390;51.244;6.982;2022-09-17T01:41:29;21.05;;;7.07;;
18520;SDS011;9390;51.244;6.982;2022-09-17T01:44:05;16.88;;;7.63;;
18520;SDS011;9390;51.244;6.982;2022-09-17T01:46:40;22.40;;;7.82;;
18520;SDS011;9390;51.244;6.982;2022-09-17T01:49:14;24.30;;;8.27;;
18520;SDS011;9390;51.244;6.982;2022-09-17T01:51:47;27.25;;;7.85;;
18520;SDS011;9390;51.244;6.982;2022-09-17T01:54:21;21.02;;;7.13;;
18520;SDS011;9390;51.244;6.982;2022-09-17T01:56:55;24.73;;;7.53;;
18520;SDS011;9390;51.244;6.982;2022-09-17T01:59:30;27.38;;;8.15;;
18520;SDS011;9390;51.244;6.982;2022-09-17T02:02:07;22.90;;;7.28;;
18520;SDS011;9390;51.244;6.982;2022-09-17T02:04:43;19.10;;;6.47;;
18520;SDS011;9390;51.244;6.982;2022-09-17T02:07:19;23.48;;;7.60;;
18520;SDS011;9390;51.244;6.982;2022-09-17T02:09:54;19.38;;;7.57;;
18520;SDS011;9390;51.244;6.982;2022-09-17T02:12:29;28.10;;;6.97;;
18520;SDS011;9390;51.244;6.982;2022-09-17T02:15:04;27.15;;;6.28;;
18520;SDS011;9390;51.244;6.982;2022-09-17T02:17:41;21.85;;;6.68;;
18520;SDS011;9390;51.244;6.982;2022-09-17T02:20:15;18.42;;;6.35;;
18520;SDS011;9390;51.244;6.982;2022-09-17T02:22:47;20.35;;;5.75;;
18520;SDS011;9390;51.244;6.982;2022-09-17T02:25:23;20.20;;;6.68;;
18520;SDS011;9390;51.244;6.982;2022-09-17T02:27:57;20.52;;;5.90;;
18520;SDS011;9390;51.244;6.982;2022-09-17T02:30:31;16.88;;;6.05;;
18520;SDS011;9390;51.244;6.982;2022-09-17T02:33:05;17.10;;;5.97;;
18520;SDS011;9390;51.244;6.982;2022-09-17T02:35:38;16.92;;;5.38;;
18520;SDS011;9390;51.244;6.982;2022-09-17T02:38:10;15.93;;;5.10;;
18520;SDS011;9390;51.244;6.982;2022-09-17T02:40:43;18.73;;;5.40;;
18520;SDS011;9390;51.244;6.982;2022-09-17T02:43:19;17.10;;;5.38;;
18520;SDS011;9390;51.244;6.982;2022-09-17T02:45:56;23.20;;;4.55;;
18520;SDS011;9390;51.244;6.982;2022-09-17T02:48:41;23.45;;;5.15;;
18520;SDS011;9390;51.244;6.982;2022-09-17T02:51:22;18.73;;;4.93;;
18520;SDS011;9390;51.244;6.982;2022-09-17T02:53:59;20.05;;;5.07;;
18520;SDS011;9390;51.244;6.982;2022-09-17T02:56:38;19.58;;;5.07;;
18520;SDS011;9390;51.244;6.982;2022-09-17T02:59:16;18.70;;;4.78;;
18520;SDS011;9390;51.244;6.982;2022-09-17T03:01:50;28.90;;;4.80;;
18520;SDS011;9390;51.244;6.982;2022-09-17T03:04:26;22.50;;;4.45;;
18520;SDS011;9390;51.244;6.982;2022-09-17T03:06:59;25.20;;;4.25;;
18520;SDS011;9390;51.244;6.982;2022-09-17T03:09:31;21.35;;;3.50;;
18520;SDS011;9390;51.244;6.982;2022-09-17T03:12:03;23.35;;;3.85;;
18520;SDS011;9390;51.244;6.982;2022-09-17T03:14:34;16.67;;;3.50;;
18520;SDS011;9390;51.244;6.982;2022-09-17T03:17:06;18.02;;;4.00;;
18520;SDS011;9390;51.244;6.982;2022-09-17T03:19:38;19.88;;;3.85;;
18520;SDS011;9390;51.244;6.982;2022-09-17T03:22:10;20.83;;;3.72;;
18520;SDS011;9390;51.244;6.982;2022-09-17T03:24:41;19.85;;;3.35;;
18520;SDS011;9390;51.244;6.982;2022-09-17T03:27:13;19.73;;;3.97;;
18520;SDS011;9390;51.244;6.982;2022-09-17T03:29:44;14.95;;;3.53;;
18520;SDS011;9390;51.244;6.982;2022-09-17T03:32:15;21.67;;;3.70;;
18520;SDS011;9390;51.244;6.982;2022-09-17T03:34:48;15.85;;;3.28;;
18520;SDS011;9390;51.244;6.982;2022-09-17T03:37:19;16.67;;;3.20;;
18520;SDS011;9390;51.244;6.982;2022-09-17T03:39:51;18.63;;;3.15;;
18520;SDS011;9390;51.244;6.982;2022-09-17T03:42:22;18.77;;;3.63;;
18520;SDS011;9390;51.244;6.982;2022-09-17T03:44:54;20.55;;;2.95;;
18520;SDS011;9390;51.244;6.982;2022-09-17T03:47:25;23.95;;;3.67;;
18520;SDS011;9390;51.244;6.982;2022-09-17T03:49:58;24.63;;;2.92;;
18520;SDS011;9390;51.244;6.982;2022-09-17T03:52:29;19.27;;;2.88;;
18520;SDS011;9390;51.244;6.982;2022-09-17T03:55:01;18.95;;;2.90;;
18520;SDS011;9390;51.244;6.982;2022-09-17T03:57:33;19.38;;;3.00;;
18520;SDS011;9390;51.244;6.982;2022-09-17T04:00:04;17.10;;;2.78;;
18520;SDS011;9390;51.244;6.982;2022-09-17T04:02:37;19.00;;;2.63;;
18520;SDS011;9390;51.244;6.982;2022-09-17T04:05:10;12.98;;;2.17;;
18520;SDS011;9390;51.244;6.982;2022-09-17T04:07:41;17.13;;;3.13;;
18520;SDS011;9390;51.244;6.982;2022-09-17T04:10:13;18.15;;;3.03;;
18520;SDS011;9390;51.244;6.982;2022-09-17T04:12:44;16.60;;;2.70;;
18520;SDS011;9390;51.244;6.982;2022-09-17T04:15:15;12.25;;;2.80;;
18520;SDS011;9390;51.244;6.982;2022-09-17T04:17:47;14.65;;;2.85;;
18520;SDS011;9390;51.244;6.982;2022-09-17T04:20:20;16.63;;;2.53;;
18520;SDS011;9390;51.244;6.982;2022-09-17T04:22:51;16.67;;;2.85;;
18520;SDS011;9390;51.244;6.982;2022-09-17T04:25:23;13.63;;;2.13;;
18520;SDS011;9390;51.244;6.982;2022-09-17T04:27:54;18.08;;;2.35;;
18520;SDS011;9390;51.244;6.982;2022-09-17T04:30:25;19.67;;;2.55;;
18520;SDS011;9390;51.244;6.982;2022-09-17T04:32:57;18.67;;;2.17;;
18520;SDS011;9390;51.244;6.982;2022-09-17T04:35:29;16.17;;;2.80;;
18520;SDS011;9390;51.244;6.982;2022-09-17T04:38:01;18.92;;;2.55;;
18520;SDS011;9390;51.244;6.982;2022-09-17T04:40:32;13.32;;;1.95;;
18520;SDS011;9390;51.244;6.982;2022-09-17T04:43:04;17.20;;;2.45;;
18520;SDS011;9390;51.244;6.982;2022-09-17T04:45:35;22.67;;;2.83;;
18520;SDS011;9390;51.244;6.982;2022-09-17T04:48:06;14.45;;;2.40;;
18520;SDS011;9390;51.244;6.982;2022-09-17T04:50:39;17.33;;;2.33;;
18520;SDS011;9390;51.244;6.982;2022-09-17T04:53:10;17.58;;;2.38;;
18520;SDS011;9390;51.244;6.982;2022-09-17T04:55:42;17.10;;;2.70;;
18520;SDS011;9390;51.244;6.982;2022-09-17T04:58:13;14.85;;;3.05;;
18520;SDS011;9390;51.244;6.982;2022-09-17T05:00:45;21.63;;;2.65;;
18520;SDS011;9390;51.244;6.982;2022-09-17T05:03:16;16.75;;;3.00;;
18520;SDS011;9390;51.244;6.982;2022-09-17T05:05:49;23.00;;;3.20;;
18520;SDS011;9390;51.244;6.982;2022-09-17T05:08:20;20.73;;;3.15;;
18520;SDS011;9390;51.244;6.982;2022-09-17T05:10:52;16.33;;;2.70;;
18520;SDS011;9390;51.244;6.982;2022-09-17T05:13:24;21.38;;;3.05;;
18520;SDS011;9390;51.244;6.982;2022-09-17T05:15:55;11.05;;;2.15;;
18520;SDS011;9390;51.244;6.982;2022-09-17T05:18:26;12.65;;;2.40;;
18520;SDS011;9390;51.244;6.982;2022-09-17T05:20:59;13.98;;;2.70;;
18520;SDS011;9390;51.244;6.982;2022-09-17T05:23:30;16.05;;;2.30;;
18520;SDS011;9390;51.244;6.982;2022-09-17T05:26:02;18.52;;;2.70;;
18520;SDS011;9390;51.244;6.982;2022-09-17T05:28:33;18.70;;;2.58;;
18520;SDS011;9390;51.244;6.982;2022-09-17T05:31:05;7.90;;;1.95;;
18520;SDS011;9390;51.244;6.982;2022-09-17T05:33:37;15.52;;;2.13;;
18520;SDS011;9390;51.244;6.982;2022-09-17T05:36:09;10.98;;;2.47;;
18520;SDS011;9390;51.244;6.982;2022-09-17T05:38:41;14.93;;;2.42;;
18520;SDS011;9390;51.244;6.982;2022-09-17T05:41:12;16.48;;;3.00;;
18520;SDS011;9390;51.244;6.982;2022-09-17T05:43:43;15.02;;;2.97;;
18520;SDS011;9390;51.244;6.982;2022-09-17T05:46:15;15.35;;;2.92;;
18520;SDS011;9390;51.244;6.982;2022-09-17T05:48:46;13.50;;;2.72;;
18520;SDS011;9390;51.244;6.982;2022-09-17T05:51:19;17.17;;;2.90;;
18520;SDS011;9390;51.244;6.982;2022-09-17T05:53:52;15.77;;;2.33;;
18520;SDS011;9390;51.244;6.982;2022-09-17T05:56:24;21.00;;;2.65;;
18520;SDS011;9390;51.244;6.982;2022-09-17T05:58:55;15.65;;;2.20;;
18520;SDS011;9390;51.244;6.982;2022-09-17T06:01:27;11.93;;;2.20;;
18520;SDS011;9390;51.244;6.982;2022-09-17T06:03:59;19.70;;;3.10;;
18520;SDS011;9390;51.244;6.982;2022-09-17T06:06:34;12.73;;;2.42;;
18520;SDS011;9390;51.244;6.982;2022-09-17T06:09:06;13.88;;;2.55;;
18520;SDS011;9390;51.244;6.982;2022-09-17T06:11:38;18.45;;;2.60;;
18520;SDS011;9390;51.244;6.982;2022-09-17T06:14:10;14.93;;;2.70;;
18520;SDS011;9390;51.244;6.982;2022-09-17T06:16:41;13.55;;;2.40;;
18520;SDS011;9390;51.244;6.982;2022-09-17T06:19:12;15.73;;;2.53;;
18520;SDS011;9390;51.244;6.982;2022-09-17T06:21:46;16.40;;;2.53;;
18520;SDS011;9390;51.244;6.982;2022-09-17T06:24:19;13.07;;;2.00;;
18520;SDS011;9390;51.244;6.982;2022-09-17T06:26:50;19.70;;;2.47;;
18520;SDS011;9390;51.244;6.982;2022-09-17T06:29:22;13.23;;;2.60;;
18520;SDS011;9390;51.244;6.982;2022-09-17T06:31:53;17.15;;;2.88;;
18520;SDS011;9390;51.244;6.982;2022-09-17T06:34:25;15.77;;;2.80;;
18520;SDS011;9390;51.244;6.982;2022-09-17T06:36:57;11.20;;;2.10;;
18520;SDS011;9390;51.244;6.982;2022-09-17T06:39:29;13.32;;;2.58;;
18520;SDS011;9390;51.244;6.982;2022-09-17T06:42:00;12.43;;;2.15;;
18520;SDS011;9390;51.244;6.982;2022-09-17T06:44:32;16.17;;;2.40;;
18520;SDS011;9390;51.244;6.982;2022-09-17T06:47:03;14.35;;;2.53;;
18520;SDS011;9390;51.244;6.982;2022-09-17T06:49:36;11.65;;;2.05;;
18520;SDS011;9390;51.244;6.982;2022-09-17T06:52:09;15.43;;;2.67;;
18520;SDS011;9390;51.244;6.982;2022-09-17T06:54:40;17.88;;;2.58;;
18520;SDS011;9390;51.244;6.982;2022-09-17T06:57:12;15.95;;;2.30;;
18520;SDS011;9390;51.244;6.982;2022-09-17T06:59:44;12.82;;;2.30;;
18520;SDS011;9390;51.244;6.982;2022-09-17T07:02:15;11.60;;;2.00;;
18520;SDS011;9390;51.244;6.982;2022-09-17T07:04:46;8.65;;;2.17;;
18520;SDS011;9390;51.244;6.982;2022-09-17T07:07:19;21.00;;;2.13;;
18520;SDS011;9390;51.244;6.982;2022-09-17T07:09:50;14.05;;;2.38;;
18520;SDS011;9390;51.244;6.982;2022-09-17T07:12:22;16.25;;;2.22;;
18520;SDS011;9390;51.244;6.982;2022-09-17T07:14:54;19.77;;;1.83;;
18520;SDS011;9390;51.244;6.982;2022-09-17T07:17:27;16.45;;;2.33;;
18520;SDS011;9390;51.244;6.982;2022-09-17T07:19:59;22.10;;;2.45;;
18520;SDS011;9390;51.244;6.982;2022-09-17T07:22:32;14.50;;;2.45;;
18520;SDS011;9390;51.244;6.982;2022-09-17T07:25:03;9.13;;;2.08;;
18520;SDS011;9390;51.244;6.982;2022-09-17T07:27:36;23.75;;;2.78;;
18520;SDS011;9390;51.244;6.982;2022-09-17T07:30:08;14.85;;;2.15;;
18520;SDS011;9390;51.244;6.982;2022-09-17T07:32:41;10.93;;;2.33;;
18520;SDS011;9390;51.244;6.982;2022-09-17T07:35:13;11.10;;;1.95;;
18520;SDS011;9390;51.244;6.982;2022-09-17T07:37:46;12.70;;;2.20;;
18520;SDS011;9390;51.244;6.982;2022-09-17T07:40:17;20.25;;;2.05;;
18520;SDS011;9390;51.244;6.982;2022-09-17T07:42:48;13.73;;;2.72;;
18520;SDS011;9390;51.244;6.982;2022-09-17T07:45:20;12.60;;;2.22;;
18520;SDS011;9390;51.244;6.982;2022-09-17T07:47:51;13.23;;;2.55;;
18520;SDS011;9390;51.244;6.982;2022-09-17T07:50:23;13.82;;;2.22;;
18520;SDS011;9390;51.244;6.982;2022-09-17T07:52:55;18.00;;;2.58;;
18520;SDS011;9390;51.244;6.982;2022-09-17T07:55:27;12.40;;;2.53;;
18520;SDS011;9390;51.244;6.982;2022-09-17T07:57:58;17.42;;;2.53;;
18520;SDS011;9390;51.244;6.982;2022-09-17T08:00:30;9.45;;;1.95;;
18520;SDS011;9390;51.244;6.982;2022-09-17T08:03:01;10.27;;;2.17;;
18520;SDS011;9390;51.244;6.982;2022-09-17T08:05:33;10.15;;;1.70;;
18520;SDS011;9390;51.244;6.982;2022-09-17T08:08:05;16.02;;;2.53;;
18520;SDS011;9390;51.244;6.982;2022-09-17T08:10:37;16.50;;;2.20;;
18520;SDS011;9390;51.244;6.982;2022-09-17T08:13:08;14.63;;;1.85;;
18520;SDS011;9390;51.244;6.982;2022-09-17T08:15:39;15.52;;;2.08;;
18520;SDS011;9390;51.244;6.982;2022-09-17T08:18:11;13.52;;;2.38;;
18520;SDS011;9390;51.244;6.982;2022-09-17T08:20:42;10.55;;;1.90;;
18520;SDS011;9390;51.244;6.982;2022-09-17T08:23:15;14.25;;;2.35;;
18520;SDS011;9390;51.244;6.982;2022-09-17T08:25:50;10.90;;;2.10;;
18520;SDS011;9390;51.244;6.982;2022-09-17T08:28:22;18.35;;;2.08;;
18520;SDS011;9390;51.244;6.982;2022-09-17T08:30:58;8.60;;;1.73;;
18520;SDS011;9390;51.244;6.982;2022-09-17T08:33:31;12.13;;;2.05;;
18520;SDS011;9390;51.244;6.982;2022-09-17T08:36:03;12.05;;;1.77;;
18520;SDS011;9390;51.244;6.982;2022-09-17T08:38:36;10.20;;;1.38;;
18520;SDS011;9390;51.244;6.982;2022-09-17T08:41:13;10.07;;;1.73;;
18520;SDS011;9390;51.244;6.982;2022-09-17T08:43:51;11.63;;;1.48;;
18520;SDS011;9390;51.244;6.982;2022-09-17T08:46:32;10.87;;;2.07;;
18520;SDS011;9390;51.244;6.982;2022-09-17T08:49:06;15.85;;;1.95;;
18520;SDS011;9390;51.244;6.982;2022-09-17T08:51:45;10.10;;;1.55;;
18520;SDS011;9390;51.244;6.982;2022-09-17T08:54:23;10.68;;;1.55;;
18520;SDS011;9390;51.244;6.982;2022-09-17T08:57:00;9.48;;;1.80;;
18520;SDS011;9390;51.244;6.982;2022-09-17T08:59:40;10.05;;;1.80;;
18520;SDS011;9390;51.244;6.982;2022-09-17T09:02:16;8.57;;;1.80;;
18520;SDS011;9390;51.244;6.982;2022-09-17T09:04:55;8.18;;;2.03;;
18520;SDS011;9390;51.244;6.982;2022-09-17T09:07:29;14.32;;;2.22;;
18520;SDS011;9390;51.244;6.982;2022-09-17T09:10:09;16.42;;;2.53;;
18520;SDS011;9390;51.244;6.982;2022-09-17T09:12:43;11.27;;;1.90;;
18520;SDS011;9390;51.244;6.982;2022-09-17T09:15:21;9.07;;;2.28;;
18520;SDS011;9390;51.244;6.982;2022-09-17T09:18:00;9.02;;;1.65;;
18520;SDS011;9390;51.244;6.982;2022-09-17T09:20:36;6.80;;;2.10;;
18520;SDS011;9390;51.244;6.982;2022-09-17T09:23:12;10.70;;;2.13;;
18520;SDS011;9390;51.244;6.982;2022-09-17T09:25:52;8.13;;;1.63;;
18520;SDS011;9390;51.244;6.982;2022-09-17T09:28:31;6.35;;;1.45;;
18520;SDS011;9390;51.244;6.982;2022-09-17T09:31:10;9.38;;;2.00;;
18520;SDS011;9390;51.244;6.982;2022-09-17T09:33:51;8.80;;;1.48;;
18520;SDS011;9390;51.244;6.982;2022-09-17T09:36:25;9.20;;;1.92;;
18520;SDS011;9390;51.244;6.982;2022-09-17T09:38:59;8.40;;;1.58;;
18520;SDS011;9390;51.244;6.982;2022-09-17T09:41:36;8.20;;;1.92;;
18520;SDS011;9390;51.244;6.982;2022-09-17T09:44:10;9.80;;;2.00;;
18520;SDS011;9390;51.244;6.982;2022-09-17T09:49:48;7.25;;;1.58;;
18520;SDS011;9390;51.244;6.982;2022-09-17T09:52:27;7.90;;;1.40;;
18520;SDS011;9390;51.244;6.982;2022-09-17T09:55:12;9.70;;;2.05;;
18520;SDS011;9390;51.244;6.982;2022-09-17T09:57:52;9.00;;;1.30;;
18520;SDS011;9390;51.244;6.982;2022-09-17T10:00:31;8.48;;;1.35;;
18520;SDS011;9390;51.244;6.982;2022-09-17T10:03:08;6.03;;;1.40;;
18520;SDS011;9390;51.244;6.982;2022-09-17T10:05:50;11.35;;;1.60;;
18520;SDS011;9390;51.244;6.982;2022-09-17T10:08:26;10.50;;;1.58;;
18520;SDS011;9390;51.244;6.982;2022-09-17T10:10:59;11.48;;;1.52;;
18520;SDS011;9390;51.244;6.982;2022-09-17T10:13:33;7.90;;;1.30;;
18520;SDS011;9390;51.244;6.982;2022-09-17T10:16:15;7.38;;;1.25;;
18520;SDS011;9390;51.244;6.982;2022-09-17T10:18:48;10.10;;;1.60;;
18520;SDS011;9390;51.244;6.982;2022-09-17T10:21:21;10.38;;;1.25;;
18520;SDS011;9390;51.244;6.982;2022-09-17T10:23:53;6.45;;;1.25;;
18520;SDS011;9390;51.244;6.982;2022-09-17T10:26:26;6.63;;;1.27;;
18520;SDS011;9390;51.244;6.982;2022-09-17T10:29:00;7.60;;;1.42;;
18520;SDS011;9390;51.244;6.982;2022-09-17T10:31:44;13.43;;;2.08;;
18520;SDS011;9390;51.244;6.982;2022-09-17T10:34:18;5.55;;;1.00;;
18520;SDS011;9390;51.244;6.982;2022-09-17T10:36:50;10.45;;;1.33;;
18520;SDS011;9390;51.244;6.982;2022-09-17T10:39:27;11.57;;;1.75;;
18520;SDS011;9390;51.244;6.982;2022-09-17T10:42:04;7.15;;;1.50;;
18520;SDS011;9390;51.244;6.982;2022-09-17T10:44:38;7.82;;;1.60;;
18520;SDS011;9390;51.244;6.982;2022-09-17T10:47:21;8.60;;;1.70;;
18520;SDS011;9390;51.244;6.982;2022-09-17T10:49:54;7.80;;;1.52;;
18520;SDS011;9390;51.244;6.982;2022-09-17T10:52:29;8.25;;;1.38;;
18520;SDS011;9390;51.244;6.982;2022-09-17T10:55:05;6.47;;;1.02;;
18520;SDS011;9390;51.244;6.982;2022-09-17T10:57:46;6.82;;;1.25;;
18520;SDS011;9390;51.244;6.982;2022-09-17T11:00:40;6.93;;;1.35;;
18520;SDS011;9390;51.244;6.982;2022-09-17T11:03:21;11.77;;;1.40;;
18520;SDS011;9390;51.244;6.982;2022-09-17T11:06:05;7.72;;;1.35;;
18520;SDS011;9390;51.244;6.982;2022-09-17T11:08:47;10.15;;;1.20;;
18520;SDS011;9390;51.244;6.982;2022-09-17T11:11:26;6.50;;;1.20;;
18520;SDS011;9390;51.244;6.982;2022-09-17T11:14:05;6.78;;;1.20;;
18520;SDS011;9390;51.244;6.982;2022-09-17T11:16:47;8.20;;;1.17;;
18520;SDS011;9390;51.244;6.982;2022-09-17T11:19:26;8.85;;;1.77;;
18520;SDS011;9390;51.244;6.982;2022-09-17T11:22:04;9.88;;;1.60;;
18520;SDS011;9390;51.244;6.982;2022-09-17T11:24:43;6.75;;;2.22;;
18520;SDS011;9390;51.244;6.982;2022-09-17T11:30:17;7.53;;;1.25;;
18520;SDS011;9390;51.244;6.982;2022-09-17T11:32:55;13.55;;;1.67;;
18520;SDS011;9390;51.244;6.982;2022-09-17T11:35:45;5.40;;;1.20;;
18520;SDS011;9390;51.244;6.982;2022-09-17T11:38:19;7.40;;;1.35;;
18520;SDS011;9390;51.244;6.982;2022-09-17T11:40:57;6.45;;;1.05;;
18520;SDS011;9390;51.244;6.982;2022-09-17T11:43:30;8.88;;;1.20;;
18520;SDS011;9390;51.244;6.982;2022-09-17T11:48:41;7.20;;;1.10;;
18520;SDS011;9390;51.244;6.982;2022-09-17T11:51:18;7.55;;;1.70;;
18520;SDS011;9390;51.244;6.982;2022-09-17T11:53:54;7.68;;;1.48;;
18520;SDS011;9390;51.244;6.982;2022-09-17T11:56:30;7.25;;;1.40;;
18520;SDS011;9390;51.244;6.982;2022-09-17T11:59:04;4.35;;;1.10;;
18520;SDS011;9390;51.244;6.982;2022-09-17T12:01:43;5.18;;;1.30;;
18520;SDS011;9390;51.244;6.982;2022-09-17T12:04:33;3.72;;;0.88;;
18520;SDS011;9390;51.244;6.982;2022-09-17T12:07:15;4.03;;;1.10;;
18520;SDS011;9390;51.244;6.982;2022-09-17T12:09:52;5.35;;;1.15;;
18520;SDS011;9390;51.244;6.982;2022-09-17T12:12:27;1.80;;;0.90;;
18520;SDS011;9390;51.244;6.982;2022-09-17T12:15:01;5.78;;;1.50;;
18520;SDS011;9390;51.244;6.982;2022-09-17T12:17:36;5.22;;;1.20;;
18520;SDS011;9390;51.244;6.982;2022-09-17T12:20:16;5.82;;;1.48;;
18520;SDS011;9390;51.244;6.982;2022-09-17T12:22:54;4.97;;;1.40;;
18520;SDS011;9390;51.244;6.982;2022-09-17T12:25:28;8.45;;;1.90;;
18520;SDS011;9390;51.244;6.982;2022-09-17T12:28:05;5.13;;;1.23;;
18520;SDS011;9390;51.244;6.982;2022-09-17T12:30:39;5.45;;;1.02;;
18520;SDS011;9390;51.244;6.982;2022-09-17T12:33:21;5.50;;;1.30;;
18520;SDS011;9390;51.244;6.982;2022-09-17T12:36:08;5.43;;;1.30;;
18520;SDS011;9390;51.244;6.982;2022-09-17T12:38:48;5.88;;;1.40;;
18520;SDS011;9390;51.244;6.982;2022-09-17T12:41:31;3.55;;;1.17;;
18520;SDS011;9390;51.244;6.982;2022-09-17T12:44:14;4.60;;;1.30;;
18520;SDS011;9390;51.244;6.982;2022-09-17T12:47:00;2.22;;;0.90;;
18520;SDS011;9390;51.244;6.982;2022-09-17T12:49:42;8.27;;;1.20;;
18520;SDS011;9390;51.244;6.982;2022-09-17T12:52:32;8.23;;;1.52;;
18520;SDS011;9390;51.244;6.982;2022-09-17T12:55:20;3.40;;;1.00;;
18520;SDS011;9390;51.244;6.982;2022-09-17T12:57:58;9.18;;;1.00;;
18520;SDS011;9390;51.244;6.982;2022-09-17T13:00:35;6.65;;;1.10;;
18520;SDS011;9390;51.244;6.982;2022-09-17T13:03:11;3.22;;;0.90;;
18520;SDS011;9390;51.244;6.982;2022-09-17T13:05:50;6.00;;;2.00;;
18520;SDS011;9390;51.244;6.982;2022-09-17T13:11:30;2.78;;;0.90;;
18520;SDS011;9390;51.244;6.982;2022-09-17T13:14:11;5.38;;;1.10;;
18520;SDS011;9390;51.244;6.982;2022-09-17T13:16:48;4.47;;;0.93;;
18520;SDS011;9390;51.244;6.982;2022-09-17T13:19:25;5.78;;;0.98;;
18520;SDS011;9390;51.244;6.982;2022-09-17T13:22:02;4.78;;;0.70;;
18520;SDS011;9390;51.244;6.982;2022-09-17T13:24:37;2.25;;;0.77;;
18520;SDS011;9390;51.244;6.982;2022-09-17T13:29:57;3.25;;;0.70;;
18520;SDS011;9390;51.244;6.982;2022-09-17T13:32:42;4.65;;;0.95;;
18520;SDS011;9390;51.244;6.982;2022-09-17T13:38:20;5.00;;;1.10;;
18520;SDS011;9390;51.244;6.982;2022-09-17T13:41:00;5.95;;;1.00;;
18520;SDS011;9390;51.244;6.982;2022-09-17T13:43:48;5.40;;;1.10;;
18520;SDS011;9390;51.244;6.982;2022-09-17T13:46:24;3.75;;;1.00;;
18520;SDS011;9390;51.244;6.982;2022-09-17T13:48:58;3.88;;;0.88;;
18520;SDS011;9390;51.244;6.982;2022-09-17T13:51:43;4.82;;;0.90;;
18520;SDS011;9390;51.244;6.982;2022-09-17T13:54:16;4.18;;;0.90;;
18520;SDS011;9390;51.244;6.982;2022-09-17T13:59:50;5.90;;;1.25;;
18520;SDS011;9390;51.244;6.982;2022-09-17T14:02:28;5.93;;;1.20;;
18520;SDS011;9390;51.244;6.982;2022-09-17T14:08:12;6.30;;;1.05;;
18520;SDS011;9390;51.244;6.982;2022-09-17T14:11:00;8.73;;;1.35;;
18520;SDS011;9390;51.244;6.982;2022-09-17T14:13:41;6.10;;;0.98;;
18520;SDS011;9390;51.244;6.982;2022-09-17T14:16:33;6.10;;;0.93;;
18520;SDS011;9390;51.244;6.982;2022-09-17T14:19:19;8.20;;;1.48;;
18520;SDS011;9390;51.244;6.982;2022-09-17T14:21:55;8.27;;;1.30;;
18520;SDS011;9390;51.244;6.982;2022-09-17T14:24:39;8.32;;;1.40;;
18520;SDS011;9390;51.244;6.982;2022-09-17T14:27:20;9.25;;;1.50;;
18520;SDS011;9390;51.244;6.982;2022-09-17T14:30:03;6.60;;;1.05;;
18520;SDS011;9390;51.244;6.982;2022-09-17T14:32:38;6.97;;;1.17;;
18520;SDS011;9390;51.244;6.982;2022-09-17T14:35:13;10.43;;;1.42;;
18520;SDS011;9390;51.244;6.982;2022-09-17T14:37:48;11.00;;;1.33;;
18520;SDS011;9390;51.244;6.982;2022-09-17T14:40:23;7.68;;;1.40;;
18520;SDS011;9390;51.244;6.982;2022-09-17T14:42:56;6.38;;;1.33;;
18520;SDS011;9390;51.244;6.982;2022-09-17T14:45:30;7.97;;;1.60;;
18520;SDS011;9390;51.244;6.982;2022-09-17T14:51:19;8.80;;;1.92;;
18520;SDS011;9390;51.244;6.982;2022-09-17T14:56:54;9.50;;;1.42;;
18520;SDS011;9390;51.244;6.982;2022-09-17T14:59:30;13.25;;;2.03;;
18520;SDS011;9390;51.244;6.982;2022-09-17T15:02:23;12.90;;;2.20;;
18520;SDS011;9390;51.244;6.982;2022-09-17T15:04:58;10.23;;;2.08;;
18520;SDS011;9390;51.244;6.982;2022-09-17T15:07:30;12.82;;;2.25;;
18520;SDS011;9390;51.244;6.982;2022-09-17T15:10:06;8.73;;;2.28;;
18520;SDS011;9390;51.244;6.982;2022-09-17T15:12:39;9.43;;;2.38;;
18520;SDS011;9390;51.244;6.982;2022-09-17T15:15:14;8.85;;;2.00;;
18520;SDS011;9390;51.244;6.982;2022-09-17T15:17:49;8.98;;;2.35;;
18520;SDS011;9390;51.244;6.982;2022-09-17T15:20:21;14.05;;;2.15;;
18520;SDS011;9390;51.244;6.982;2022-09-17T15:22:55;13.88;;;2.15;;
18520;SDS011;9390;51.244;6.982;2022-09-17T15:25:32;10.00;;;1.77;;
18520;SDS011;9390;51.244;6.982;2022-09-17T15:28:07;16.20;;;2.65;;
18520;SDS011;9390;51.244;6.982;2022-09-17T15:30:48;8.68;;;2.15;;
18520;SDS011;9390;51.244;6.982;2022-09-17T15:33:21;12.68;;;2.03;;
18520;SDS011;9390;51.244;6.982;2022-09-17T15:35:57;15.25;;;1.98;;
18520;SDS011;9390;51.244;6.982;2022-09-17T15:38:31;14.95;;;2.25;;
18520;SDS011;9390;51.244;6.982;2022-09-17T15:41:18;8.13;;;1.50;;
18520;SDS011;9390;51.244;6.982;2022-09-17T15:43:53;9.05;;;1.63;;
18520;SDS011;9390;51.244;6.982;2022-09-17T15:46:25;11.93;;;2.05;;
18520;SDS011;9390;51.244;6.982;2022-09-17T15:51:32;9.50;;;1.70;;
18520;SDS011;9390;51.244;6.982;2022-09-17T15:56:36;9.82;;;1.98;;
18520;SDS011;9390;51.244;6.982;2022-09-17T15:59:19;15.02;;;2.45;;
18520;SDS011;9390;51.244;6.982;2022-09-17T16:01:52;11.20;;;2.00;;
18520;SDS011;9390;51.244;6.982;2022-09-17T16:04:27;8.38;;;1.95;;
18520;SDS011;9390;51.244;6.982;2022-09-17T16:07:01;15.90;;;2.05;;
18520;SDS011;9390;51.244;6.982;2022-09-17T16:09:49;8.45;;;1.30;;
18520;SDS011;9390;51.244;6.982;2022-09-17T16:12:22;11.73;;;1.42;;
18520;SDS011;9390;51.244;6.982;2022-09-17T16:14:55;10.48;;;1.63;;
18520;SDS011;9390;51.244;6.982;2022-09-17T16:17:31;13.98;;;1.58;;
18520;SDS011;9390;51.244;6.982;2022-09-17T16:20:08;5.18;;;1.20;;
18520;SDS011;9390;51.244;6.982;2022-09-17T16:22:44;9.00;;;1.40;;
18520;SDS011;9390;51.244;6.982;2022-09-17T16:25:17;9.30;;;1.45;;